sensor_id;sensor_type;location;lat;lon;timestamp;P1;durP1;ratioP1;P2;durP2;ratioP2
73508;SDS011;61750;55.036;73.312;2022-09-09T00:04:54;10.23;;;4.60;;
73508;SDS011;61750;55.036;73.312;2022-09-09T00:07:47;12.80;;;4.70;;
73508;SDS011;61750;55.036;73.312;2022-09-09T00:16:11;11.38;;;3.78;;
73508;SDS011;61750;55.036;73.312;2022-09-09T00:19:28;10.30;;;4.13;;
73508;SDS011;61750;55.036;73.312;2022-09-09T00:22:23;6.80;;;3.88;;
73508;SDS011;61750;55.036;73.312;2022-09-09T00:24:55;11.10;;;4.70;;
73508;SDS011;61750;55.036;73.312;2022-09-09T00:32:44;10.70;;;4.70;;
73508;SDS011;61750;55.036;73.312;2022-09-09T00:35:23;11.52;;;4.57;;
73508;SDS011;61750;55.036;73.312;2022-09-09T00:37:52;9.52;;;4.75;;
73508;SDS011;61750;55.036;73.312;2022-09-09T00:43:49;18.33;;;4.82;;
73508;SDS011;61750;55.036;73.312;2022-09-09T00:57:10;8.20;;;4.00;;
73508;SDS011;61750;55.036;73.312;2022-09-09T00:59:48;9.93;;;4.53;;
73508;SDS011;61750;55.036;73.312;2022-09-09T01:04:54;7.47;;;4.70;;
73508;SDS011;61750;55.036;73.312;2022-09-09T01:07:26;10.30;;;5.15;;
73508;SDS011;61750;55.036;73.312;2022-09-09T01:10:07;9.73;;;5.10;;
73508;SDS011;61750;55.036;73.312;2022-09-09T01:12:41;11.73;;;5.78;;
73508;SDS011;61750;55.036;73.312;2022-09-09T01:15:22;8.60;;;5.30;;
73508;SDS011;61750;55.036;73.312;2022-09-09T01:20:39;9.03;;;5.03;;
73508;SDS011;61750;55.036;73.312;2022-09-09T01:23:37;10.15;;;5.43;;
73508;SDS011;61750;55.036;73.312;2022-09-09T01:31:56;11.88;;;6.38;;
73508;SDS011;61750;55.036;73.312;2022-09-09T01:34:31;5.05;;;4.05;;
73508;SDS011;61750;55.036;73.312;2022-09-09T01:37:07;10.65;;;6.40;;
73508;SDS011;61750;55.036;73.312;2022-09-09T01:39:37;11.93;;;5.75;;
73508;SDS011;61750;55.036;73.312;2022-09-09T01:42:13;15.48;;;6.13;;
73508;SDS011;61750;55.036;73.312;2022-09-09T01:44:42;13.57;;;6.43;;
73508;SDS011;61750;55.036;73.312;2022-09-09T01:47:08;21.55;;;6.20;;
73508;SDS011;61750;55.036;73.312;2022-09-09T01:49:47;14.73;;;7.40;;
73508;SDS011;61750;55.036;73.312;2022-09-09T01:52:26;12.85;;;7.18;;
73508;SDS011;61750;55.036;73.312;2022-09-09T01:54:53;10.30;;;5.80;;
73508;SDS011;61750;55.036;73.312;2022-09-09T01:57:24;18.25;;;7.25;;
73508;SDS011;61750;55.036;73.312;2022-09-09T02:03:08;16.73;;;6.50;;
73508;SDS011;61750;55.036;73.312;2022-09-09T02:09:24;20.45;;;8.43;;
73508;SDS011;61750;55.036;73.312;2022-09-09T02:12:22;15.00;;;7.47;;
73508;SDS011;61750;55.036;73.312;2022-09-09T02:15:00;15.73;;;6.20;;
73508;SDS011;61750;55.036;73.312;2022-09-09T02:17:52;14.13;;;7.28;;
73508;SDS011;61750;55.036;73.312;2022-09-09T02:20:29;9.53;;;4.50;;
73508;SDS011;61750;55.036;73.312;2022-09-09T02:22:59;8.07;;;3.92;;
73508;SDS011;61750;55.036;73.312;2022-09-09T02:25:35;9.63;;;4.70;;
73508;SDS011;61750;55.036;73.312;2022-09-09T02:28:13;11.32;;;4.13;;
73508;SDS011;61750;55.036;73.312;2022-09-09T02:30:42;11.35;;;6.20;;
73508;SDS011;61750;55.036;73.312;2022-09-09T02:33:09;14.98;;;5.97;;
73508;SDS011;61750;55.036;73.312;2022-09-09T02:35:45;14.93;;;6.93;;
73508;SDS011;61750;55.036;73.312;2022-09-09T02:38:16;18.52;;;5.55;;
73508;SDS011;61750;55.036;73.312;2022-09-09T02:40:59;18.10;;;6.20;;
73508;SDS011;61750;55.036;73.312;2022-09-09T02:43:30;31.50;;;13.70;;
73508;SDS011;61750;55.036;73.312;2022-09-09T02:46:08;25.38;;;12.48;;
73508;SDS011;61750;55.036;73.312;2022-09-09T02:52:20;11.50;;;4.95;;
73508;SDS011;61750;55.036;73.312;2022-09-09T02:55:12;9.32;;;3.80;;
73508;SDS011;61750;55.036;73.312;2022-09-09T02:58:00;14.02;;;4.85;;
73508;SDS011;61750;55.036;73.312;2022-09-09T03:00:43;6.63;;;3.55;;
73508;SDS011;61750;55.036;73.312;2022-09-09T03:03:24;12.13;;;4.25;;
73508;SDS011;61750;55.036;73.312;2022-09-09T03:05:51;12.55;;;5.03;;
73508;SDS011;61750;55.036;73.312;2022-09-09T03:08:18;14.02;;;4.72;;
73508;SDS011;61750;55.036;73.312;2022-09-09T03:13:23;9.40;;;4.72;;
73508;SDS011;61750;55.036;73.312;2022-09-09T03:15:55;15.43;;;5.18;;
73508;SDS011;61750;55.036;73.312;2022-09-09T03:18:22;10.57;;;4.10;;
73508;SDS011;61750;55.036;73.312;2022-09-09T03:20:52;12.52;;;4.20;;
73508;SDS011;61750;55.036;73.312;2022-09-09T03:23:25;12.50;;;4.28;;
73508;SDS011;61750;55.036;73.312;2022-09-09T03:25:51;14.15;;;4.65;;
73508;SDS011;61750;55.036;73.312;2022-09-09T03:28:24;11.25;;;3.88;;
73508;SDS011;61750;55.036;73.312;2022-09-09T03:31:07;16.63;;;4.28;;
73508;SDS011;61750;55.036;73.312;2022-09-09T03:33:39;10.15;;;3.75;;
73508;SDS011;61750;55.036;73.312;2022-09-09T03:36:14;6.30;;;2.20;;
73508;SDS011;61750;55.036;73.312;2022-09-09T03:39:24;6.62;;;2.88;;
73508;SDS011;61750;55.036;73.312;2022-09-09T03:41:50;8.02;;;2.92;;
73508;SDS011;61750;55.036;73.312;2022-09-09T03:44:18;8.88;;;2.55;;
73508;SDS011;61750;55.036;73.312;2022-09-09T03:46:44;10.90;;;2.95;;
73508;SDS011;61750;55.036;73.312;2022-09-09T03:51:51;10.05;;;2.95;;
73508;SDS011;61750;55.036;73.312;2022-09-09T03:56:51;10.90;;;2.90;;
73508;SDS011;61750;55.036;73.312;2022-09-09T04:01:50;13.88;;;2.97;;
73508;SDS011;61750;55.036;73.312;2022-09-09T04:06:53;9.38;;;3.00;;
73508;SDS011;61750;55.036;73.312;2022-09-09T04:11:51;8.10;;;3.00;;
73508;SDS011;61750;55.036;73.312;2022-09-09T04:14:19;5.53;;;2.50;;
73508;SDS011;61750;55.036;73.312;2022-09-09T04:16:45;6.60;;;2.08;;
73508;SDS011;61750;55.036;73.312;2022-09-09T04:21:51;5.70;;;2.33;;
73508;SDS011;61750;55.036;73.312;2022-09-09T04:26:54;7.45;;;2.15;;
73508;SDS011;61750;55.036;73.312;2022-09-09T04:31:50;4.30;;;1.80;;
73508;SDS011;61750;55.036;73.312;2022-09-09T04:37:03;5.28;;;2.13;;
73508;SDS011;61750;55.036;73.312;2022-09-09T04:39:29;6.15;;;1.05;;
73508;SDS011;61750;55.036;73.312;2022-09-09T04:41:57;7.28;;;2.30;;
73508;SDS011;61750;55.036;73.312;2022-09-09T04:44:24;2.83;;;1.58;;
73508;SDS011;61750;55.036;73.312;2022-09-09T04:46:51;2.78;;;1.20;;
73508;SDS011;61750;55.036;73.312;2022-09-09T04:51:51;4.30;;;2.00;;
73508;SDS011;61750;55.036;73.312;2022-09-09T04:56:51;8.70;;;2.20;;
73508;SDS011;61750;55.036;73.312;2022-09-09T05:01:54;6.47;;;1.90;;
73508;SDS011;61750;55.036;73.312;2022-09-09T05:06:50;7.20;;;2.20;;
73508;SDS011;61750;55.036;73.312;2022-09-09T05:11:51;7.68;;;2.15;;
73508;SDS011;61750;55.036;73.312;2022-09-09T05:14:28;4.75;;;1.80;;
73508;SDS011;61750;55.036;73.312;2022-09-09T05:16:55;4.43;;;1.52;;
73508;SDS011;61750;55.036;73.312;2022-09-09T05:21:52;3.88;;;1.60;;
73508;SDS011;61750;55.036;73.312;2022-09-09T05:26:53;5.25;;;1.38;;
73508;SDS011;61750;55.036;73.312;2022-09-09T05:31:51;5.07;;;1.67;;
73508;SDS011;61750;55.036;73.312;2022-09-09T05:36:50;3.75;;;1.52;;
73508;SDS011;61750;55.036;73.312;2022-09-09T05:42:00;4.70;;;1.52;;
73508;SDS011;61750;55.036;73.312;2022-09-09T05:44:38;3.75;;;1.17;;
73508;SDS011;61750;55.036;73.312;2022-09-09T05:47:05;6.28;;;1.30;;
73508;SDS011;61750;55.036;73.312;2022-09-09T05:49:31;2.90;;;1.10;;
73508;SDS011;61750;55.036;73.312;2022-09-09T05:52:03;2.88;;;1.35;;
73508;SDS011;61750;55.036;73.312;2022-09-09T05:54:30;2.27;;;1.13;;
73508;SDS011;61750;55.036;73.312;2022-09-09T06:01:53;11.38;;;1.85;;
73508;SDS011;61750;55.036;73.312;2022-09-09T06:04:29;7.63;;;1.10;;
73508;SDS011;61750;55.036;73.312;2022-09-09T06:06:58;2.70;;;1.40;;
73508;SDS011;61750;55.036;73.312;2022-09-09T06:12:01;8.65;;;1.90;;
73508;SDS011;61750;55.036;73.312;2022-09-09T06:14:31;4.82;;;2.13;;
73508;SDS011;61750;55.036;73.312;2022-09-09T06:16:59;8.95;;;2.58;;
73508;SDS011;61750;55.036;73.312;2022-09-09T06:19:28;8.30;;;2.40;;
73508;SDS011;61750;55.036;73.312;2022-09-09T06:21:57;6.22;;;1.55;;
73508;SDS011;61750;55.036;73.312;2022-09-09T06:26:52;3.17;;;1.40;;
73508;SDS011;61750;55.036;73.312;2022-09-09T06:29:28;1.60;;;0.70;;
73508;SDS011;61750;55.036;73.312;2022-09-09T06:31:54;6.95;;;1.63;;
73508;SDS011;61750;55.036;73.312;2022-09-09T06:37:03;2.88;;;1.50;;
73508;SDS011;61750;55.036;73.312;2022-09-09T06:39:37;3.80;;;1.55;;
73508;SDS011;61750;55.036;73.312;2022-09-09T06:42:03;4.65;;;1.40;;
73508;SDS011;61750;55.036;73.312;2022-09-09T06:44:55;8.23;;;1.77;;
73508;SDS011;61750;55.036;73.312;2022-09-09T06:47:51;4.68;;;1.63;;
73508;SDS011;61750;55.036;73.312;2022-09-09T06:50:21;5.07;;;1.50;;
73508;SDS011;61750;55.036;73.312;2022-09-09T06:52:49;3.72;;;1.50;;
73508;SDS011;61750;55.036;73.312;2022-09-09T06:57:49;3.30;;;1.38;;
73508;SDS011;61750;55.036;73.312;2022-09-09T07:00:21;2.78;;;1.38;;
73508;SDS011;61750;55.036;73.312;2022-09-09T07:05:13;3.63;;;1.47;;
73508;SDS011;61750;55.036;73.312;2022-09-09T07:07:42;2.88;;;1.38;;
73508;SDS011;61750;55.036;73.312;2022-09-09T07:10:10;3.83;;;1.60;;
73508;SDS011;61750;55.036;73.312;2022-09-09T07:12:37;2.35;;;1.38;;
73508;SDS011;61750;55.036;73.312;2022-09-09T07:15:03;8.63;;;1.70;;
73508;SDS011;61750;55.036;73.312;2022-09-09T07:17:30;4.00;;;1.40;;
73508;SDS011;61750;55.036;73.312;2022-09-09T07:19:58;3.10;;;1.25;;
73508;SDS011;61750;55.036;73.312;2022-09-09T07:22:27;4.65;;;1.40;;
73508;SDS011;61750;55.036;73.312;2022-09-09T07:24:53;4.23;;;1.20;;
73508;SDS011;61750;55.036;73.312;2022-09-09T07:27:20;5.88;;;1.55;;
73508;SDS011;61750;55.036;73.312;2022-09-09T07:29:47;5.25;;;1.30;;
73508;SDS011;61750;55.036;73.312;2022-09-09T07:34:40;5.13;;;1.48;;
73508;SDS011;61750;55.036;73.312;2022-09-09T07:37:07;5.82;;;1.60;;
73508;SDS011;61750;55.036;73.312;2022-09-09T07:39:35;3.20;;;1.30;;
73508;SDS011;61750;55.036;73.312;2022-09-09T07:42:01;3.47;;;1.40;;
73508;SDS011;61750;55.036;73.312;2022-09-09T07:44:28;4.60;;;1.50;;
73508;SDS011;61750;55.036;73.312;2022-09-09T07:47:05;4.50;;;1.30;;
73508;SDS011;61750;55.036;73.312;2022-09-09T07:49:49;5.55;;;1.42;;
73508;SDS011;61750;55.036;73.312;2022-09-09T07:52:21;2.45;;;1.20;;
73508;SDS011;61750;55.036;73.312;2022-09-09T07:54:52;3.60;;;1.20;;
73508;SDS011;61750;55.036;73.312;2022-09-09T07:57:18;5.13;;;1.73;;
73508;SDS011;61750;55.036;73.312;2022-09-09T07:59:47;6.90;;;1.95;;
73508;SDS011;61750;55.036;73.312;2022-09-09T08:02:14;4.80;;;1.13;;
73508;SDS011;61750;55.036;73.312;2022-09-09T08:04:41;6.30;;;1.60;;
73508;SDS011;61750;55.036;73.312;2022-09-09T08:07:08;4.32;;;1.45;;
73508;SDS011;61750;55.036;73.312;2022-09-09T08:09:45;8.90;;;1.63;;
73508;SDS011;61750;55.036;73.312;2022-09-09T08:12:19;5.32;;;1.90;;
73508;SDS011;61750;55.036;73.312;2022-09-09T08:14:45;6.60;;;1.70;;
73508;SDS011;61750;55.036;73.312;2022-09-09T08:19:38;4.00;;;1.33;;
73508;SDS011;61750;55.036;73.312;2022-09-09T08:22:10;8.95;;;2.05;;
73508;SDS011;61750;55.036;73.312;2022-09-09T08:24:39;5.47;;;1.73;;
73508;SDS011;61750;55.036;73.312;2022-09-09T08:27:12;7.15;;;1.92;;
73508;SDS011;61750;55.036;73.312;2022-09-09T08:29:38;3.40;;;1.42;;
73508;SDS011;61750;55.036;73.312;2022-09-09T08:32:16;8.27;;;1.80;;
73508;SDS011;61750;55.036;73.312;2022-09-09T08:34:45;5.33;;;1.80;;
73508;SDS011;61750;55.036;73.312;2022-09-09T08:37:15;3.47;;;1.33;;
73508;SDS011;61750;55.036;73.312;2022-09-09T08:39:43;3.92;;;1.70;;
73508;SDS011;61750;55.036;73.312;2022-09-09T08:42:24;6.72;;;2.10;;
73508;SDS011;61750;55.036;73.312;2022-09-09T08:47:55;7.43;;;2.60;;
73508;SDS011;61750;55.036;73.312;2022-09-09T08:53:16;10.90;;;2.25;;
73508;SDS011;61750;55.036;73.312;2022-09-09T08:55:53;8.57;;;2.28;;
73508;SDS011;61750;55.036;73.312;2022-09-09T08:58:41;11.88;;;2.33;;
73508;SDS011;61750;55.036;73.312;2022-09-09T09:07:28;8.20;;;2.08;;
73508;SDS011;61750;55.036;73.312;2022-09-09T09:15:55;8.50;;;2.10;;
73508;SDS011;61750;55.036;73.312;2022-09-09T09:18:28;6.03;;;2.08;;
73508;SDS011;61750;55.036;73.312;2022-09-09T09:21:10;8.15;;;2.25;;
73508;SDS011;61750;55.036;73.312;2022-09-09T09:24:06;8.20;;;1.75;;
73508;SDS011;61750;55.036;73.312;2022-09-09T09:26:34;6.90;;;2.50;;
73508;SDS011;61750;55.036;73.312;2022-09-09T09:29:24;5.45;;;2.13;;
73508;SDS011;61750;55.036;73.312;2022-09-09T09:31:52;7.43;;;2.20;;
73508;SDS011;61750;55.036;73.312;2022-09-09T09:36:53;5.55;;;2.00;;
73508;SDS011;61750;55.036;73.312;2022-09-09T09:41:57;6.80;;;2.20;;
73508;SDS011;61750;55.036;73.312;2022-09-09T09:44:33;6.88;;;2.35;;
73508;SDS011;61750;55.036;73.312;2022-09-09T09:47:15;4.88;;;2.10;;
73508;SDS011;61750;55.036;73.312;2022-09-09T09:50:03;8.68;;;3.65;;
73508;SDS011;61750;55.036;73.312;2022-09-09T09:52:35;6.43;;;2.28;;
73508;SDS011;61750;55.036;73.312;2022-09-09T09:55:11;10.90;;;2.58;;
73508;SDS011;61750;55.036;73.312;2022-09-09T09:57:40;7.43;;;2.88;;
73508;SDS011;61750;55.036;73.312;2022-09-09T10:02:50;11.88;;;4.93;;
73508;SDS011;61750;55.036;73.312;2022-09-09T10:05:27;11.32;;;4.32;;
73508;SDS011;61750;55.036;73.312;2022-09-09T10:08:05;6.57;;;2.70;;
73508;SDS011;61750;55.036;73.312;2022-09-09T10:22:02;9.15;;;2.60;;
73508;SDS011;61750;55.036;73.312;2022-09-09T10:25:11;7.65;;;2.80;;
73508;SDS011;61750;55.036;73.312;2022-09-09T10:27:51;17.70;;;3.78;;
73508;SDS011;61750;55.036;73.312;2022-09-09T10:30:41;8.98;;;3.05;;
73508;SDS011;61750;55.036;73.312;2022-09-09T10:33:32;10.65;;;3.10;;
73508;SDS011;61750;55.036;73.312;2022-09-09T10:36:16;9.82;;;3.17;;
73508;SDS011;61750;55.036;73.312;2022-09-09T10:44:58;9.70;;;3.42;;
73508;SDS011;61750;55.036;73.312;2022-09-09T10:53:48;8.60;;;3.35;;
73508;SDS011;61750;55.036;73.312;2022-09-09T10:56:25;12.85;;;3.03;;
73508;SDS011;61750;55.036;73.312;2022-09-09T10:59:26;7.90;;;2.67;;
73508;SDS011;61750;55.036;73.312;2022-09-09T11:10:42;13.47;;;3.00;;
73508;SDS011;61750;55.036;73.312;2022-09-09T11:15:53;7.95;;;2.83;;
73508;SDS011;61750;55.036;73.312;2022-09-09T11:18:26;8.23;;;2.75;;
73508;SDS011;61750;55.036;73.312;2022-09-09T11:21:08;10.38;;;3.17;;
73508;SDS011;61750;55.036;73.312;2022-09-09T11:29:49;14.80;;;4.40;;
73508;SDS011;61750;55.036;73.312;2022-09-09T11:40:45;11.52;;;3.22;;
73508;SDS011;61750;55.036;73.312;2022-09-09T11:43:13;13.48;;;3.85;;
73508;SDS011;61750;55.036;73.312;2022-09-09T11:45:49;9.23;;;3.30;;
73508;SDS011;61750;55.036;73.312;2022-09-09T11:51:10;11.20;;;4.35;;
73508;SDS011;61750;55.036;73.312;2022-09-09T11:53:48;8.38;;;2.70;;
73508;SDS011;61750;55.036;73.312;2022-09-09T11:59:28;5.80;;;2.70;;
73508;SDS011;61750;55.036;73.312;2022-09-09T12:02:08;6.20;;;2.60;;
73508;SDS011;61750;55.036;73.312;2022-09-09T12:10:29;10.40;;;3.00;;
73508;SDS011;61750;55.036;73.312;2022-09-09T12:15:48;9.45;;;3.88;;
73508;SDS011;61750;55.036;73.312;2022-09-09T12:18:26;8.90;;;3.92;;
73508;SDS011;61750;55.036;73.312;2022-09-09T12:32:23;19.90;;;9.18;;
73508;SDS011;61750;55.036;73.312;2022-09-09T12:40:20;19.00;;;9.88;;
73508;SDS011;61750;55.036;73.312;2022-09-09T12:42:51;23.70;;;11.43;;
73508;SDS011;61750;55.036;73.312;2022-09-09T12:45:19;20.55;;;10.70;;
73508;SDS011;61750;55.036;73.312;2022-09-09T12:47:48;21.35;;;10.38;;
73508;SDS011;61750;55.036;73.312;2022-09-09T12:53:09;19.90;;;10.90;;
73508;SDS011;61750;55.036;73.312;2022-09-09T12:55:48;26.70;;;11.52;;
73508;SDS011;61750;55.036;73.312;2022-09-09T12:58:17;21.83;;;11.85;;
73508;SDS011;61750;55.036;73.312;2022-09-09T13:00:49;26.98;;;10.27;;
73508;SDS011;61750;55.036;73.312;2022-09-09T13:05:50;12.48;;;6.47;;
73508;SDS011;61750;55.036;73.312;2022-09-09T13:08:28;25.30;;;7.05;;
73508;SDS011;61750;55.036;73.312;2022-09-09T13:11:02;11.10;;;5.97;;
73508;SDS011;61750;55.036;73.312;2022-09-09T13:13:36;12.80;;;5.10;;
73508;SDS011;61750;55.036;73.312;2022-09-09T13:16:07;10.35;;;4.95;;
73508;SDS011;61750;55.036;73.312;2022-09-09T13:19:24;14.18;;;6.47;;
73508;SDS011;61750;55.036;73.312;2022-09-09T13:21:53;18.02;;;6.00;;
73508;SDS011;61750;55.036;73.312;2022-09-09T13:27:38;21.15;;;8.10;;
73508;SDS011;61750;55.036;73.312;2022-09-09T13:33:19;15.60;;;5.90;;
73508;SDS011;61750;55.036;73.312;2022-09-09T13:35:58;12.85;;;5.32;;
73508;SDS011;61750;55.036;73.312;2022-09-09T13:38:38;13.65;;;5.85;;
73508;SDS011;61750;55.036;73.312;2022-09-09T13:41:21;15.85;;;5.07;;
73508;SDS011;61750;55.036;73.312;2022-09-09T13:43:57;16.12;;;7.47;;
73508;SDS011;61750;55.036;73.312;2022-09-09T13:46:34;17.27;;;6.57;;
73508;SDS011;61750;55.036;73.312;2022-09-09T13:49:24;8.27;;;3.92;;
73508;SDS011;61750;55.036;73.312;2022-09-09T13:54:57;12.95;;;5.55;;
73508;SDS011;61750;55.036;73.312;2022-09-09T13:57:26;14.00;;;6.25;;
73508;SDS011;61750;55.036;73.312;2022-09-09T13:59:53;23.92;;;7.60;;
73508;SDS011;61750;55.036;73.312;2022-09-09T14:02:28;36.63;;;8.07;;
73508;SDS011;61750;55.036;73.312;2022-09-09T14:04:54;19.75;;;7.68;;
73508;SDS011;61750;55.036;73.312;2022-09-09T14:07:25;20.35;;;8.10;;
73508;SDS011;61750;55.036;73.312;2022-09-09T14:09:51;23.27;;;7.45;;
73508;SDS011;61750;55.036;73.312;2022-09-09T14:12:23;21.15;;;7.88;;
73508;SDS011;61750;55.036;73.312;2022-09-09T14:14:54;17.47;;;7.60;;
73508;SDS011;61750;55.036;73.312;2022-09-09T14:17:20;17.58;;;7.75;;
73508;SDS011;61750;55.036;73.312;2022-09-09T14:19:57;22.75;;;8.80;;
73508;SDS011;61750;55.036;73.312;2022-09-09T14:22:28;18.83;;;8.73;;
73508;SDS011;61750;55.036;73.312;2022-09-09T14:24:54;21.60;;;8.23;;
73508;SDS011;61750;55.036;73.312;2022-09-09T14:27:20;24.48;;;9.20;;
73508;SDS011;61750;55.036;73.312;2022-09-09T14:32:12;20.30;;;9.10;;
73508;SDS011;61750;55.036;73.312;2022-09-09T14:34:48;26.37;;;11.20;;
73508;SDS011;61750;55.036;73.312;2022-09-09T14:37:17;26.48;;;10.23;;
73508;SDS011;61750;55.036;73.312;2022-09-09T14:39:44;22.48;;;10.18;;
73508;SDS011;61750;55.036;73.312;2022-09-09T14:42:22;24.08;;;10.50;;
73508;SDS011;61750;55.036;73.312;2022-09-09T14:44:48;23.60;;;11.32;;
73508;SDS011;61750;55.036;73.312;2022-09-09T14:47:15;35.08;;;13.90;;
73508;SDS011;61750;55.036;73.312;2022-09-09T14:49:41;37.35;;;12.55;;
73508;SDS011;61750;55.036;73.312;2022-09-09T14:52:07;27.10;;;11.13;;
73508;SDS011;61750;55.036;73.312;2022-09-09T14:54:34;36.43;;;9.80;;
73508;SDS011;61750;55.036;73.312;2022-09-09T14:57:00;23.90;;;10.57;;
73508;SDS011;61750;55.036;73.312;2022-09-09T14:59:27;24.60;;;9.80;;
